sensor_id;sensor_type;location;lat;lon;timestamp;P1;durP1;ratioP1;P2;durP2;ratioP2
63342;SDS011;49465;57.664;39.686;2023-04-15T00:00:11;6.53;;;3.35;;
63342;SDS011;49465;57.664;39.686;2023-04-15T00:02:37;5.88;;;3.15;;
63342;SDS011;49465;57.664;39.686;2023-04-15T00:05:04;7.07;;;3.33;;
63342;SDS011;49465;57.664;39.686;2023-04-15T00:07:31;5.70;;;3.13;;
63342;SDS011;49465;57.664;39.686;2023-04-15T00:10:00;6.47;;;3.53;;
63342;SDS011;49465;57.664;39.686;2023-04-15T00:12:28;7.30;;;3.50;;
63342;SDS011;49465;57.664;39.686;2023-04-15T00:14:54;6.07;;;3.65;;
63342;SDS011;49465;57.664;39.686;2023-04-15T00:17:22;5.85;;;3.42;;
63342;SDS011;49465;57.664;39.686;2023-04-15T00:19:49;6.50;;;3.45;;
63342;SDS011;49465;57.664;39.686;2023-04-15T00:22:18;6.45;;;3.90;;
63342;SDS011;49465;57.664;39.686;2023-04-15T00:24:49;7.10;;;3.80;;
63342;SDS011;49465;57.664;39.686;2023-04-15T00:27:17;7.10;;;4.07;;
63342;SDS011;49465;57.664;39.686;2023-04-15T00:29:45;8.13;;;4.32;;
63342;SDS011;49465;57.664;39.686;2023-04-15T00:32:18;7.18;;;3.90;;
63342;SDS011;49465;57.664;39.686;2023-04-15T00:34:44;6.85;;;3.88;;
63342;SDS011;49465;57.664;39.686;2023-04-15T00:37:11;6.60;;;4.20;;
63342;SDS011;49465;57.664;39.686;2023-04-15T00:39:40;6.88;;;3.97;;
63342;SDS011;49465;57.664;39.686;2023-04-15T00:42:06;7.13;;;3.78;;
63342;SDS011;49465;57.664;39.686;2023-04-15T00:44:35;7.35;;;4.13;;
63342;SDS011;49465;57.664;39.686;2023-04-15T00:47:01;6.88;;;3.83;;
63342;SDS011;49465;57.664;39.686;2023-04-15T00:49:32;6.05;;;3.65;;
63342;SDS011;49465;57.664;39.686;2023-04-15T00:52:01;5.43;;;3.50;;
63342;SDS011;49465;57.664;39.686;2023-04-15T00:54:28;7.10;;;3.75;;
63342;SDS011;49465;57.664;39.686;2023-04-15T00:56:54;5.82;;;3.50;;
63342;SDS011;49465;57.664;39.686;2023-04-15T00:59:22;4.82;;;3.10;;
63342;SDS011;49465;57.664;39.686;2023-04-15T01:01:48;5.10;;;3.15;;
63342;SDS011;49465;57.664;39.686;2023-04-15T01:04:15;4.30;;;2.88;;
63342;SDS011;49465;57.664;39.686;2023-04-15T01:06:42;5.05;;;2.95;;
63342;SDS011;49465;57.664;39.686;2023-04-15T01:09:12;6.22;;;2.95;;
63342;SDS011;49465;57.664;39.686;2023-04-15T01:11:41;4.55;;;2.90;;
63342;SDS011;49465;57.664;39.686;2023-04-15T01:14:08;4.13;;;2.65;;
63342;SDS011;49465;57.664;39.686;2023-04-15T01:16:35;4.53;;;2.63;;
63342;SDS011;49465;57.664;39.686;2023-04-15T01:19:07;4.32;;;2.50;;
63342;SDS011;49465;57.664;39.686;2023-04-15T01:21:35;4.35;;;2.60;;
63342;SDS011;49465;57.664;39.686;2023-04-15T01:24:08;4.78;;;2.20;;
63342;SDS011;49465;57.664;39.686;2023-04-15T01:26:38;3.97;;;2.10;;
63342;SDS011;49465;57.664;39.686;2023-04-15T01:29:05;4.32;;;2.20;;
63342;SDS011;49465;57.664;39.686;2023-04-15T01:31:32;5.05;;;2.15;;
63342;SDS011;49465;57.664;39.686;2023-04-15T01:33:59;4.00;;;2.30;;
63342;SDS011;49465;57.664;39.686;2023-04-15T01:36:26;3.70;;;2.28;;
63342;SDS011;49465;57.664;39.686;2023-04-15T01:38:53;3.78;;;2.40;;
63342;SDS011;49465;57.664;39.686;2023-04-15T01:41:27;3.53;;;2.22;;
63342;SDS011;49465;57.664;39.686;2023-04-15T01:43:54;2.70;;;1.98;;
63342;SDS011;49465;57.664;39.686;2023-04-15T01:46:21;5.03;;;2.10;;
63342;SDS011;49465;57.664;39.686;2023-04-15T01:48:47;4.60;;;2.38;;
63342;SDS011;49465;57.664;39.686;2023-04-15T01:51:14;2.80;;;2.05;;
63342;SDS011;49465;57.664;39.686;2023-04-15T01:53:40;4.65;;;2.28;;
63342;SDS011;49465;57.664;39.686;2023-04-15T01:56:07;5.13;;;2.53;;
63342;SDS011;49465;57.664;39.686;2023-04-15T01:58:33;4.40;;;2.20;;
63342;SDS011;49465;57.664;39.686;2023-04-15T02:00:59;4.18;;;2.30;;
63342;SDS011;49465;57.664;39.686;2023-04-15T02:03:27;3.65;;;2.20;;
63342;SDS011;49465;57.664;39.686;2023-04-15T02:05:53;4.72;;;2.30;;
63342;SDS011;49465;57.664;39.686;2023-04-15T02:08:20;5.68;;;2.35;;
63342;SDS011;49465;57.664;39.686;2023-04-15T02:10:47;4.85;;;2.55;;
63342;SDS011;49465;57.664;39.686;2023-04-15T02:13:13;4.28;;;2.55;;
63342;SDS011;49465;57.664;39.686;2023-04-15T02:15:45;3.85;;;2.35;;
63342;SDS011;49465;57.664;39.686;2023-04-15T02:18:13;2.75;;;2.08;;
63342;SDS011;49465;57.664;39.686;2023-04-15T02:20:40;3.65;;;2.35;;
63342;SDS011;49465;57.664;39.686;2023-04-15T02:23:07;3.17;;;2.40;;
63342;SDS011;49465;57.664;39.686;2023-04-15T02:25:35;4.40;;;2.47;;
63342;SDS011;49465;57.664;39.686;2023-04-15T02:28:03;3.88;;;2.30;;
63342;SDS011;49465;57.664;39.686;2023-04-15T02:30:31;3.95;;;2.10;;
63342;SDS011;49465;57.664;39.686;2023-04-15T02:32:57;2.95;;;1.70;;
63342;SDS011;49465;57.664;39.686;2023-04-15T02:35:25;3.53;;;2.30;;
63342;SDS011;49465;57.664;39.686;2023-04-15T02:37:51;2.95;;;2.00;;
63342;SDS011;49465;57.664;39.686;2023-04-15T02:40:18;2.80;;;1.95;;
63342;SDS011;49465;57.664;39.686;2023-04-15T02:42:44;2.95;;;2.13;;
63342;SDS011;49465;57.664;39.686;2023-04-15T02:45:11;2.45;;;1.90;;
63342;SDS011;49465;57.664;39.686;2023-04-15T02:47:37;3.33;;;2.03;;
63342;SDS011;49465;57.664;39.686;2023-04-15T02:50:09;4.55;;;2.00;;
63342;SDS011;49465;57.664;39.686;2023-04-15T02:52:40;2.97;;;2.10;;
63342;SDS011;49465;57.664;39.686;2023-04-15T02:55:07;3.45;;;1.98;;
63342;SDS011;49465;57.664;39.686;2023-04-15T02:57:33;3.08;;;2.10;;
63342;SDS011;49465;57.664;39.686;2023-04-15T03:00:04;3.35;;;2.13;;
63342;SDS011;49465;57.664;39.686;2023-04-15T03:02:37;7.53;;;2.33;;
63342;SDS011;49465;57.664;39.686;2023-04-15T03:05:10;3.30;;;2.07;;
63342;SDS011;49465;57.664;39.686;2023-04-15T03:07:37;3.70;;;2.20;;
63342;SDS011;49465;57.664;39.686;2023-04-15T03:10:07;3.72;;;1.95;;
63342;SDS011;49465;57.664;39.686;2023-04-15T03:12:34;5.30;;;2.10;;
63342;SDS011;49465;57.664;39.686;2023-04-15T03:15:00;4.55;;;1.98;;
63342;SDS011;49465;57.664;39.686;2023-04-15T03:17:27;3.55;;;1.98;;
63342;SDS011;49465;57.664;39.686;2023-04-15T03:19:56;3.03;;;2.20;;
63342;SDS011;49465;57.664;39.686;2023-04-15T03:22:22;3.80;;;1.83;;
63342;SDS011;49465;57.664;39.686;2023-04-15T03:24:49;3.88;;;1.88;;
63342;SDS011;49465;57.664;39.686;2023-04-15T03:27:15;2.72;;;1.83;;
63342;SDS011;49465;57.664;39.686;2023-04-15T03:29:41;4.80;;;1.92;;
63342;SDS011;49465;57.664;39.686;2023-04-15T03:32:08;3.08;;;1.77;;
63342;SDS011;49465;57.664;39.686;2023-04-15T03:34:36;2.63;;;1.67;;
63342;SDS011;49465;57.664;39.686;2023-04-15T03:37:04;2.95;;;1.60;;
63342;SDS011;49465;57.664;39.686;2023-04-15T03:39:31;3.83;;;1.90;;
63342;SDS011;49465;57.664;39.686;2023-04-15T03:41:57;5.82;;;1.50;;
63342;SDS011;49465;57.664;39.686;2023-04-15T03:44:25;4.13;;;1.70;;
63342;SDS011;49465;57.664;39.686;2023-04-15T03:46:52;2.90;;;1.85;;
63342;SDS011;49465;57.664;39.686;2023-04-15T03:49:18;3.53;;;1.92;;
63342;SDS011;49465;57.664;39.686;2023-04-15T03:51:47;2.67;;;1.70;;
63342;SDS011;49465;57.664;39.686;2023-04-15T03:54:13;3.88;;;1.80;;
63342;SDS011;49465;57.664;39.686;2023-04-15T03:56:40;3.30;;;1.92;;
63342;SDS011;49465;57.664;39.686;2023-04-15T03:59:06;4.38;;;2.10;;
63342;SDS011;49465;57.664;39.686;2023-04-15T04:01:33;3.15;;;1.83;;
63342;SDS011;49465;57.664;39.686;2023-04-15T04:03:59;4.22;;;1.80;;
63342;SDS011;49465;57.664;39.686;2023-04-15T04:06:26;4.45;;;1.90;;
63342;SDS011;49465;57.664;39.686;2023-04-15T04:08:52;4.90;;;1.70;;
63342;SDS011;49465;57.664;39.686;2023-04-15T04:11:18;3.03;;;1.83;;
63342;SDS011;49465;57.664;39.686;2023-04-15T04:13:47;2.40;;;1.63;;
63342;SDS011;49465;57.664;39.686;2023-04-15T04:16:13;3.75;;;1.80;;
63342;SDS011;49465;57.664;39.686;2023-04-15T04:18:40;3.90;;;1.80;;
63342;SDS011;49465;57.664;39.686;2023-04-15T04:21:06;3.30;;;1.85;;
63342;SDS011;49465;57.664;39.686;2023-04-15T04:23:33;3.75;;;1.77;;
63342;SDS011;49465;57.664;39.686;2023-04-15T04:25:59;3.05;;;1.83;;
63342;SDS011;49465;57.664;39.686;2023-04-15T04:28:26;3.47;;;2.13;;
63342;SDS011;49465;57.664;39.686;2023-04-15T04:30:52;3.45;;;1.80;;
63342;SDS011;49465;57.664;39.686;2023-04-15T04:33:19;3.65;;;1.83;;
63342;SDS011;49465;57.664;39.686;2023-04-15T04:35:45;4.47;;;2.00;;
63342;SDS011;49465;57.664;39.686;2023-04-15T04:38:12;4.03;;;1.83;;
63342;SDS011;49465;57.664;39.686;2023-04-15T04:40:38;5.85;;;1.73;;
63342;SDS011;49465;57.664;39.686;2023-04-15T04:43:05;3.08;;;1.80;;
63342;SDS011;49465;57.664;39.686;2023-04-15T04:45:31;3.75;;;2.10;;
63342;SDS011;49465;57.664;39.686;2023-04-15T04:47:58;4.93;;;1.90;;
63342;SDS011;49465;57.664;39.686;2023-04-15T04:50:31;5.07;;;1.88;;
63342;SDS011;49465;57.664;39.686;2023-04-15T04:53:01;3.40;;;1.80;;
63342;SDS011;49465;57.664;39.686;2023-04-15T04:55:30;3.22;;;1.88;;
63342;SDS011;49465;57.664;39.686;2023-04-15T04:58:01;4.10;;;1.77;;
63342;SDS011;49465;57.664;39.686;2023-04-15T05:00:27;3.22;;;1.90;;
63342;SDS011;49465;57.664;39.686;2023-04-15T05:02:56;2.60;;;1.63;;
63342;SDS011;49465;57.664;39.686;2023-04-15T05:05:25;3.00;;;1.90;;
63342;SDS011;49465;57.664;39.686;2023-04-15T05:07:54;4.22;;;2.00;;
63342;SDS011;49465;57.664;39.686;2023-04-15T05:10:21;4.25;;;2.03;;
63342;SDS011;49465;57.664;39.686;2023-04-15T05:12:50;5.00;;;1.90;;
63342;SDS011;49465;57.664;39.686;2023-04-15T05:15:19;4.38;;;1.90;;
63342;SDS011;49465;57.664;39.686;2023-04-15T05:17:49;4.78;;;1.80;;
63342;SDS011;49465;57.664;39.686;2023-04-15T05:20:18;2.83;;;1.58;;
63342;SDS011;49465;57.664;39.686;2023-04-15T05:22:53;3.92;;;1.77;;
63342;SDS011;49465;57.664;39.686;2023-04-15T05:25:28;3.42;;;1.80;;
63342;SDS011;49465;57.664;39.686;2023-04-15T05:27:55;4.57;;;1.90;;
63342;SDS011;49465;57.664;39.686;2023-04-15T05:30:24;3.00;;;1.63;;
63342;SDS011;49465;57.664;39.686;2023-04-15T05:32:53;5.32;;;1.90;;
63342;SDS011;49465;57.664;39.686;2023-04-15T05:35:23;4.18;;;1.90;;
63342;SDS011;49465;57.664;39.686;2023-04-15T05:37:52;4.28;;;1.70;;
63342;SDS011;49465;57.664;39.686;2023-04-15T05:40:21;5.03;;;1.90;;
63342;SDS011;49465;57.664;39.686;2023-04-15T05:42:48;8.63;;;1.83;;
63342;SDS011;49465;57.664;39.686;2023-04-15T05:45:15;3.45;;;1.77;;
63342;SDS011;49465;57.664;39.686;2023-04-15T05:47:41;3.17;;;1.60;;
63342;SDS011;49465;57.664;39.686;2023-04-15T05:50:08;2.83;;;1.55;;
63342;SDS011;49465;57.664;39.686;2023-04-15T05:52:37;4.00;;;1.90;;
63342;SDS011;49465;57.664;39.686;2023-04-15T05:55:04;2.70;;;1.65;;
63342;SDS011;49465;57.664;39.686;2023-04-15T05:57:31;2.97;;;1.67;;
63342;SDS011;49465;57.664;39.686;2023-04-15T06:00:02;6.35;;;2.00;;
63342;SDS011;49465;57.664;39.686;2023-04-15T06:02:31;6.15;;;1.80;;
63342;SDS011;49465;57.664;39.686;2023-04-15T06:05:00;2.45;;;1.83;;
63342;SDS011;49465;57.664;39.686;2023-04-15T06:07:28;2.65;;;1.50;;
63342;SDS011;49465;57.664;39.686;2023-04-15T06:36:50;2.17;;;1.50;;
63342;SDS011;49465;57.664;39.686;2023-04-15T06:39:21;3.25;;;2.00;;
63342;SDS011;49465;57.664;39.686;2023-04-15T06:41:48;5.00;;;2.00;;
63342;SDS011;49465;57.664;39.686;2023-04-15T06:44:17;5.78;;;2.30;;
63342;SDS011;49465;57.664;39.686;2023-04-15T06:46:46;5.07;;;2.10;;
63342;SDS011;49465;57.664;39.686;2023-04-15T06:49:15;6.22;;;2.08;;
63342;SDS011;49465;57.664;39.686;2023-04-15T06:51:45;3.28;;;1.63;;
63342;SDS011;49465;57.664;39.686;2023-04-15T06:54:18;3.72;;;1.60;;
63342;SDS011;49465;57.664;39.686;2023-04-15T06:56:47;6.25;;;1.80;;
63342;SDS011;49465;57.664;39.686;2023-04-15T06:59:17;2.78;;;1.42;;
63342;SDS011;49465;57.664;39.686;2023-04-15T07:01:47;9.13;;;1.60;;
63342;SDS011;49465;57.664;39.686;2023-04-15T07:04:18;4.10;;;1.50;;
63342;SDS011;49465;57.664;39.686;2023-04-15T07:06:45;4.55;;;1.70;;
63342;SDS011;49465;57.664;39.686;2023-04-15T07:09:14;4.68;;;1.58;;
63342;SDS011;49465;57.664;39.686;2023-04-15T07:11:45;4.88;;;1.73;;
63342;SDS011;49465;57.664;39.686;2023-04-15T07:14:11;2.72;;;1.58;;
63342;SDS011;49465;57.664;39.686;2023-04-15T07:16:46;1.95;;;1.50;;
63342;SDS011;49465;57.664;39.686;2023-04-15T07:19:14;3.70;;;1.50;;
63342;SDS011;49465;57.664;39.686;2023-04-15T07:21:41;4.63;;;1.80;;
63342;SDS011;49465;57.664;39.686;2023-04-15T07:24:14;5.97;;;1.98;;
63342;SDS011;49465;57.664;39.686;2023-04-15T07:26:42;3.40;;;1.92;;
63342;SDS011;49465;57.664;39.686;2023-04-15T07:29:09;4.90;;;2.03;;
63342;SDS011;49465;57.664;39.686;2023-04-15T07:31:38;4.07;;;2.30;;
63342;SDS011;49465;57.664;39.686;2023-04-15T07:34:08;3.22;;;2.20;;
63342;SDS011;49465;57.664;39.686;2023-04-15T07:36:40;3.03;;;1.80;;
63342;SDS011;49465;57.664;39.686;2023-04-15T07:39:19;2.97;;;2.10;;
63342;SDS011;49465;57.664;39.686;2023-04-15T07:41:45;3.55;;;2.53;;
63342;SDS011;49465;57.664;39.686;2023-04-15T07:44:15;4.28;;;2.28;;
63342;SDS011;49465;57.664;39.686;2023-04-15T07:46:41;5.30;;;2.30;;
63342;SDS011;49465;57.664;39.686;2023-04-15T07:49:10;4.78;;;2.05;;
63342;SDS011;49465;57.664;39.686;2023-04-15T07:51:37;5.80;;;2.20;;
63342;SDS011;49465;57.664;39.686;2023-04-15T07:54:04;4.93;;;2.20;;
63342;SDS011;49465;57.664;39.686;2023-04-15T07:56:30;4.28;;;2.30;;
63342;SDS011;49465;57.664;39.686;2023-04-15T07:58:56;4.03;;;1.80;;
63342;SDS011;49465;57.664;39.686;2023-04-15T08:01:25;5.45;;;1.80;;
63342;SDS011;49465;57.664;39.686;2023-04-15T08:03:54;5.13;;;1.60;;
63342;SDS011;49465;57.664;39.686;2023-04-15T08:06:21;3.75;;;1.80;;
63342;SDS011;49465;57.664;39.686;2023-04-15T08:08:48;3.33;;;1.77;;
63342;SDS011;49465;57.664;39.686;2023-04-15T08:11:14;4.22;;;1.80;;
63342;SDS011;49465;57.664;39.686;2023-04-15T08:13:43;4.40;;;1.70;;
63342;SDS011;49465;57.664;39.686;2023-04-15T08:21:15;2.60;;;1.58;;
63342;SDS011;49465;57.664;39.686;2023-04-15T08:23:46;3.38;;;1.23;;
63342;SDS011;49465;57.664;39.686;2023-04-15T08:26:18;1.90;;;1.30;;
63342;SDS011;49465;57.664;39.686;2023-04-15T08:28:50;3.03;;;1.60;;
63342;SDS011;49465;57.664;39.686;2023-04-15T08:31:17;10.45;;;4.85;;
63342;SDS011;49465;57.664;39.686;2023-04-15T08:33:55;6.78;;;2.58;;
63342;SDS011;49465;57.664;39.686;2023-04-15T08:36:24;4.05;;;1.85;;
63342;SDS011;49465;57.664;39.686;2023-04-15T08:38:53;3.20;;;1.65;;
63342;SDS011;49465;57.664;39.686;2023-04-15T08:41:25;3.28;;;1.58;;
63342;SDS011;49465;57.664;39.686;2023-04-15T08:44:02;2.00;;;1.15;;
63342;SDS011;49465;57.664;39.686;2023-04-15T08:46:36;7.05;;;3.13;;
63342;SDS011;49465;57.664;39.686;2023-04-15T08:49:04;4.35;;;1.40;;
63342;SDS011;49465;57.664;39.686;2023-04-15T08:54:04;6.05;;;2.40;;
63342;SDS011;49465;57.664;39.686;2023-04-15T08:56:31;3.80;;;1.60;;
63342;SDS011;49465;57.664;39.686;2023-04-15T08:59:04;4.95;;;2.60;;
63342;SDS011;49465;57.664;39.686;2023-04-15T09:01:31;5.60;;;2.13;;
63342;SDS011;49465;57.664;39.686;2023-04-15T09:04:01;7.07;;;1.90;;
63342;SDS011;49465;57.664;39.686;2023-04-15T09:06:33;3.42;;;1.40;;
63342;SDS011;49465;57.664;39.686;2023-04-15T09:09:02;7.57;;;3.50;;
63342;SDS011;49465;57.664;39.686;2023-04-15T09:11:28;2.33;;;1.58;;
63342;SDS011;49465;57.664;39.686;2023-04-15T09:14:01;4.32;;;1.80;;
63342;SDS011;49465;57.664;39.686;2023-04-15T09:16:34;3.90;;;1.67;;
63342;SDS011;49465;57.664;39.686;2023-04-15T09:19:27;2.97;;;1.55;;
63342;SDS011;49465;57.664;39.686;2023-04-15T09:22:00;4.28;;;1.60;;
63342;SDS011;49465;57.664;39.686;2023-04-15T09:24:36;2.88;;;1.35;;
63342;SDS011;49465;57.664;39.686;2023-04-15T09:27:09;2.88;;;1.33;;
63342;SDS011;49465;57.664;39.686;2023-04-15T09:29:35;5.25;;;1.52;;
63342;SDS011;49465;57.664;39.686;2023-04-15T09:32:12;3.15;;;1.50;;
63342;SDS011;49465;57.664;39.686;2023-04-15T09:34:42;4.72;;;1.40;;
63342;SDS011;49465;57.664;39.686;2023-04-15T09:37:12;3.58;;;1.33;;
63342;SDS011;49465;57.664;39.686;2023-04-15T09:39:48;4.55;;;2.08;;
63342;SDS011;49465;57.664;39.686;2023-04-15T09:42:18;2.95;;;1.58;;
63342;SDS011;49465;57.664;39.686;2023-04-15T09:44:55;3.70;;;1.65;;
63342;SDS011;49465;57.664;39.686;2023-04-15T09:47:38;4.50;;;1.50;;
63342;SDS011;49465;57.664;39.686;2023-04-15T09:50:08;1.80;;;1.27;;
63342;SDS011;49465;57.664;39.686;2023-04-15T09:52:48;3.90;;;1.48;;
63342;SDS011;49465;57.664;39.686;2023-04-15T09:55:20;4.50;;;1.60;;
63342;SDS011;49465;57.664;39.686;2023-04-15T09:57:52;3.33;;;1.40;;
63342;SDS011;49465;57.664;39.686;2023-04-15T10:00:24;3.90;;;1.70;;
63342;SDS011;49465;57.664;39.686;2023-04-15T10:03:03;3.60;;;1.48;;
63342;SDS011;49465;57.664;39.686;2023-04-15T10:05:36;2.38;;;1.60;;
63342;SDS011;49465;57.664;39.686;2023-04-15T10:08:05;3.60;;;1.60;;
63342;SDS011;49465;57.664;39.686;2023-04-15T10:10:37;3.30;;;1.50;;
63342;SDS011;49465;57.664;39.686;2023-04-15T10:13:09;3.50;;;1.60;;
63342;SDS011;49465;57.664;39.686;2023-04-15T10:15:42;4.75;;;1.63;;
63342;SDS011;49465;57.664;39.686;2023-04-15T10:18:15;4.50;;;1.73;;
63342;SDS011;49465;57.664;39.686;2023-04-15T10:20:43;3.20;;;1.77;;
63342;SDS011;49465;57.664;39.686;2023-04-15T10:23:12;6.32;;;1.67;;
63342;SDS011;49465;57.664;39.686;2023-04-15T10:25:41;3.67;;;1.80;;
63342;SDS011;49465;57.664;39.686;2023-04-15T10:28:11;2.22;;;1.48;;
63342;SDS011;49465;57.664;39.686;2023-04-15T10:30:47;3.13;;;1.67;;
63342;SDS011;49465;57.664;39.686;2023-04-15T10:41:26;4.07;;;1.88;;
63342;SDS011;49465;57.664;39.686;2023-04-15T10:44:00;3.95;;;1.95;;
63342;SDS011;49465;57.664;39.686;2023-04-15T10:49:15;5.45;;;1.98;;
63342;SDS011;49465;57.664;39.686;2023-04-15T10:52:07;3.97;;;1.45;;
63342;SDS011;49465;57.664;39.686;2023-04-15T10:54:37;4.53;;;1.70;;
63342;SDS011;49465;57.664;39.686;2023-04-15T10:57:22;4.20;;;1.77;;
63342;SDS011;49465;57.664;39.686;2023-04-15T11:02:51;8.15;;;4.03;;
63342;SDS011;49465;57.664;39.686;2023-04-15T11:08:10;11.25;;;5.50;;
63342;SDS011;49465;57.664;39.686;2023-04-15T11:15:39;3.95;;;1.80;;
63342;SDS011;49465;57.664;39.686;2023-04-15T11:18:13;3.72;;;1.80;;
63342;SDS011;49465;57.664;39.686;2023-04-15T11:20:47;3.10;;;1.50;;
63342;SDS011;49465;57.664;39.686;2023-04-15T11:23:29;4.53;;;1.70;;
63342;SDS011;49465;57.664;39.686;2023-04-15T11:26:07;4.47;;;1.55;;
63342;SDS011;49465;57.664;39.686;2023-04-15T11:28:39;4.82;;;1.70;;
63342;SDS011;49465;57.664;39.686;2023-04-15T11:31:11;2.67;;;1.73;;
63342;SDS011;49465;57.664;39.686;2023-04-15T11:36:17;3.75;;;1.60;;
63342;SDS011;49465;57.664;39.686;2023-04-15T11:38:50;2.13;;;1.52;;
63342;SDS011;49465;57.664;39.686;2023-04-15T11:41:20;1.83;;;1.48;;
63342;SDS011;49465;57.664;39.686;2023-04-15T11:43:48;3.58;;;1.70;;
63342;SDS011;49465;57.664;39.686;2023-04-15T11:46:19;7.63;;;3.50;;
63342;SDS011;49465;57.664;39.686;2023-04-15T11:48:48;5.43;;;3.00;;
63342;SDS011;49465;57.664;39.686;2023-04-15T11:51:17;2.97;;;2.45;;
63342;SDS011;49465;57.664;39.686;2023-04-15T11:53:49;10.13;;;2.70;;
63342;SDS011;49465;57.664;39.686;2023-04-15T11:56:24;6.70;;;2.10;;
63342;SDS011;49465;57.664;39.686;2023-04-15T11:58:58;5.82;;;3.17;;
63342;SDS011;49465;57.664;39.686;2023-04-15T12:04:13;9.13;;;3.08;;
63342;SDS011;49465;57.664;39.686;2023-04-15T12:06:45;6.22;;;2.70;;
63342;SDS011;49465;57.664;39.686;2023-04-15T12:09:15;8.13;;;1.95;;
63342;SDS011;49465;57.664;39.686;2023-04-15T12:17:02;4.47;;;2.10;;
63342;SDS011;49465;57.664;39.686;2023-04-15T12:19:37;4.80;;;2.20;;
63342;SDS011;49465;57.664;39.686;2023-04-15T12:22:19;26.92;;;3.72;;
63342;SDS011;49465;57.664;39.686;2023-04-15T12:27:27;9.13;;;1.90;;
63342;SDS011;49465;57.664;39.686;2023-04-15T12:35:13;7.97;;;1.77;;
63342;SDS011;49465;57.664;39.686;2023-04-15T12:37:48;5.13;;;1.80;;
63342;SDS011;49465;57.664;39.686;2023-04-15T12:40:18;4.88;;;2.97;;
63342;SDS011;49465;57.664;39.686;2023-04-15T12:42:50;5.95;;;2.38;;
63342;SDS011;49465;57.664;39.686;2023-04-15T12:47:55;4.55;;;2.80;;
63342;SDS011;49465;57.664;39.686;2023-04-15T12:50:22;17.67;;;2.92;;
63342;SDS011;49465;57.664;39.686;2023-04-15T12:52:58;4.80;;;2.38;;
63342;SDS011;49465;57.664;39.686;2023-04-15T12:55:24;3.50;;;2.17;;
63342;SDS011;49465;57.664;39.686;2023-04-15T12:57:57;3.60;;;1.75;;
63342;SDS011;49465;57.664;39.686;2023-04-15T13:00:23;4.68;;;2.00;;
63342;SDS011;49465;57.664;39.686;2023-04-15T13:02:52;8.18;;;2.15;;
63342;SDS011;49465;57.664;39.686;2023-04-15T13:05:19;3.20;;;2.20;;
63342;SDS011;49465;57.664;39.686;2023-04-15T13:07:51;4.15;;;1.60;;
63342;SDS011;49465;57.664;39.686;2023-04-15T13:10:26;14.30;;;1.98;;
63342;SDS011;49465;57.664;39.686;2023-04-15T13:12:56;5.32;;;1.85;;
63342;SDS011;49465;57.664;39.686;2023-04-15T13:15:22;4.97;;;2.17;;
63342;SDS011;49465;57.664;39.686;2023-04-15T13:17:52;6.35;;;2.60;;
63342;SDS011;49465;57.664;39.686;2023-04-15T13:20:18;4.80;;;2.47;;
63342;SDS011;49465;57.664;39.686;2023-04-15T13:22:44;3.45;;;1.90;;
63342;SDS011;49465;57.664;39.686;2023-04-15T13:25:13;2.47;;;1.77;;
63342;SDS011;49465;57.664;39.686;2023-04-15T13:27:40;2.50;;;2.03;;
63342;SDS011;49465;57.664;39.686;2023-04-15T13:30:07;5.35;;;2.50;;
63342;SDS011;49465;57.664;39.686;2023-04-15T13:32:34;4.70;;;2.90;;
63342;SDS011;49465;57.664;39.686;2023-04-15T13:35:00;6.18;;;2.20;;
63342;SDS011;49465;57.664;39.686;2023-04-15T13:37:29;4.97;;;2.00;;
63342;SDS011;49465;57.664;39.686;2023-04-15T13:39:58;3.70;;;2.10;;
63342;SDS011;49465;57.664;39.686;2023-04-15T13:42:25;6.05;;;2.50;;
63342;SDS011;49465;57.664;39.686;2023-04-15T13:44:51;4.38;;;3.22;;
63342;SDS011;49465;57.664;39.686;2023-04-15T13:47:18;6.80;;;3.15;;
63342;SDS011;49465;57.664;39.686;2023-04-15T13:49:48;5.90;;;4.10;;
63342;SDS011;49465;57.664;39.686;2023-04-15T13:52:21;7.97;;;4.40;;
63342;SDS011;49465;57.664;39.686;2023-04-15T13:54:50;6.47;;;4.07;;
63342;SDS011;49465;57.664;39.686;2023-04-15T13:57:19;15.85;;;9.80;;
63342;SDS011;49465;57.664;39.686;2023-04-15T13:59:52;11.98;;;7.43;;
63342;SDS011;49465;57.664;39.686;2023-04-15T14:02:30;14.57;;;9.35;;
63342;SDS011;49465;57.664;39.686;2023-04-15T14:04:56;31.77;;;19.77;;
63342;SDS011;49465;57.664;39.686;2023-04-15T14:07:26;38.53;;;26.33;;
63342;SDS011;49465;57.664;39.686;2023-04-15T14:09:57;10.90;;;7.75;;
63342;SDS011;49465;57.664;39.686;2023-04-15T14:12:27;16.13;;;5.00;;
63342;SDS011;49465;57.664;39.686;2023-04-15T14:15:02;9.07;;;6.07;;
63342;SDS011;49465;57.664;39.686;2023-04-15T14:17:32;5.28;;;3.45;;
63342;SDS011;49465;57.664;39.686;2023-04-15T14:20:06;6.25;;;3.63;;
63342;SDS011;49465;57.664;39.686;2023-04-15T14:22:35;23.60;;;14.80;;
63342;SDS011;49465;57.664;39.686;2023-04-15T14:25:11;38.55;;;23.42;;
63342;SDS011;49465;57.664;39.686;2023-04-15T14:27:43;34.08;;;21.00;;
63342;SDS011;49465;57.664;39.686;2023-04-15T14:30:15;37.17;;;24.20;;
63342;SDS011;49465;57.664;39.686;2023-04-15T14:32:48;21.67;;;12.70;;
63342;SDS011;49465;57.664;39.686;2023-04-15T14:35:21;27.43;;;16.63;;
63342;SDS011;49465;57.664;39.686;2023-04-15T14:37:50;26.33;;;15.73;;
63342;SDS011;49465;57.664;39.686;2023-04-15T14:40:20;23.23;;;13.95;;
63342;SDS011;49465;57.664;39.686;2023-04-15T14:42:49;27.02;;;17.40;;
63342;SDS011;49465;57.664;39.686;2023-04-15T14:45:18;14.43;;;9.70;;
63342;SDS011;49465;57.664;39.686;2023-04-15T14:47:45;15.10;;;8.25;;
63342;SDS011;49465;57.664;39.686;2023-04-15T14:50:12;14.60;;;8.60;;
63342;SDS011;49465;57.664;39.686;2023-04-15T14:52:41;12.00;;;8.68;;
63342;SDS011;49465;57.664;39.686;2023-04-15T14:55:09;14.48;;;9.15;;
63342;SDS011;49465;57.664;39.686;2023-04-15T14:57:37;14.27;;;8.20;;
63342;SDS011;49465;57.664;39.686;2023-04-15T15:00:07;9.38;;;5.38;;
63342;SDS011;49465;57.664;39.686;2023-04-15T15:02:35;8.13;;;3.80;;
63342;SDS011;49465;57.664;39.686;2023-04-15T15:05:02;7.20;;;3.40;;
63342;SDS011;49465;57.664;39.686;2023-04-15T15:07:29;4.88;;;2.80;;
63342;SDS011;49465;57.664;39.686;2023-04-15T15:10:02;5.40;;;2.78;;
63342;SDS011;49465;57.664;39.686;2023-04-15T15:12:32;4.75;;;2.30;;
63342;SDS011;49465;57.664;39.686;2023-04-15T15:15:06;4.80;;;2.20;;
63342;SDS011;49465;57.664;39.686;2023-04-15T15:17:43;6.75;;;2.15;;
63342;SDS011;49465;57.664;39.686;2023-04-15T15:20:12;3.47;;;1.90;;
63342;SDS011;49465;57.664;39.686;2023-04-15T15:22:43;6.05;;;2.13;;
63342;SDS011;49465;57.664;39.686;2023-04-15T15:25:11;4.30;;;1.90;;
63342;SDS011;49465;57.664;39.686;2023-04-15T15:27:49;6.97;;;1.70;;
63342;SDS011;49465;57.664;39.686;2023-04-15T15:30:15;5.15;;;1.63;;
63342;SDS011;49465;57.664;39.686;2023-04-15T15:32:48;8.75;;;4.47;;
63342;SDS011;49465;57.664;39.686;2023-04-15T15:35:17;6.78;;;3.28;;
63342;SDS011;49465;57.664;39.686;2023-04-15T15:37:50;16.73;;;8.38;;
63342;SDS011;49465;57.664;39.686;2023-04-15T15:40:21;20.52;;;10.82;;
63342;SDS011;49465;57.664;39.686;2023-04-15T15:42:54;20.45;;;11.40;;
63342;SDS011;49465;57.664;39.686;2023-04-15T15:45:21;11.73;;;5.35;;
63342;SDS011;49465;57.664;39.686;2023-04-15T15:47:48;26.17;;;15.68;;
63342;SDS011;49465;57.664;39.686;2023-04-15T15:50:14;11.52;;;5.97;;
63342;SDS011;49465;57.664;39.686;2023-04-15T15:52:46;7.10;;;4.95;;
63342;SDS011;49465;57.664;39.686;2023-04-15T15:55:15;8.60;;;5.78;;
63342;SDS011;49465;57.664;39.686;2023-04-15T15:57:49;6.43;;;3.28;;
63342;SDS011;49465;57.664;39.686;2023-04-15T16:00:21;7.75;;;2.92;;
63342;SDS011;49465;57.664;39.686;2023-04-15T16:02:48;7.72;;;4.30;;